Time;durP1;ratioP1;P1;durP2;ratioP2;P2;SDS_P1;SDS_P2;PMS_P1;PMS_P2;Temp;Humidity;BMP_temperature;BMP_pressure;BME280_temperature;BME280_humidity;BME280_pressure;Samples;Min_cycle;Max_cycle;Signal;HPM_P1;HPM_P2
2022/07/17 00:01:48;;;;;;;8.60;3.78;;;;;;;11.88;79.89;102710.31;6125886;23;20006;-71
2022/07/17 00:04:14;;;;;;;8.05;3.70;;;;;;;11.88;79.61;102719.84;6126357;23;20065;-72
2022/07/17 00:06:39;;;;;;;13.90;4.57;;;;;;;11.84;79.89;102716.53;6126417;23;20072;-71
2022/07/17 00:09:04;;;;;;;10.95;4.38;;;;;;;11.74;80.29;102697.91;6126345;23;20006;-80
2022/07/17 00:11:30;;;;;;;12.07;4.65;;;;;;;11.76;80.11;102703.84;6126235;23;20012;-80
2022/07/17 00:13:55;;;;;;;9.38;4.13;;;;;;;11.81;80.61;102697.69;6100638;23;20002;-80
2022/07/17 00:16:21;;;;;;;10.52;3.83;;;;;;;11.70;80.69;102695.47;6126064;23;20425;-73
2022/07/17 00:18:46;;;;;;;10.60;4.15;;;;;;;11.58;80.82;102690.75;6114313;23;20506;-74
2022/07/17 00:21:12;;;;;;;10.80;5.00;;;;;;;11.45;81.11;102674.84;6099553;23;20089;-81
2022/07/17 00:23:37;;;;;;;10.75;4.43;;;;;;;11.49;81.14;102687.59;6126428;23;20041;-71
2022/07/17 00:26:02;;;;;;;8.18;4.30;;;;;;;11.56;80.93;102702.91;6125836;23;20389;-80
2022/07/17 00:28:28;;;;;;;10.80;4.40;;;;;;;11.53;81.05;102703.88;6125888;23;20006;-77
2022/07/17 00:30:53;;;;;;;11.35;4.55;;;;;;;11.52;81.37;102707.38;6126190;23;20006;-79
2022/07/17 00:33:18;;;;;;;9.23;4.05;;;;;;;11.44;81.34;102709.38;6126313;23;20013;-76
2022/07/17 00:35:44;;;;;;;9.63;4.80;;;;;;;11.42;81.14;102706.88;6126212;23;20447;-80
2022/07/17 00:38:10;;;;;;;10.88;4.35;;;;;;;11.39;81.58;102706.09;6126242;23;20009;-71
2022/07/17 00:40:35;;;;;;;11.98;5.32;;;;;;;11.37;81.50;102705.31;6125807;23;20006;-71
2022/07/17 00:43:00;;;;;;;11.35;4.53;;;;;;;11.36;81.48;102704.47;6098502;23;20432;-71
2022/07/17 00:45:26;;;;;;;10.82;4.45;;;;;;;11.32;81.69;102709.84;6126104;23;20035;-79
2022/07/17 00:48:00;;;;;;;10.52;4.22;;;;;;;11.28;81.85;102706.50;6126034;23;20002;-79
2022/07/17 00:50:32;;;;;;;15.15;4.95;;;;;;;11.18;82.36;102711.16;6125876;23;20006;-81
2022/07/17 00:52:58;;;;;;;10.88;4.68;;;;;;;11.14;82.20;102713.91;6125610;23;20049;-78
2022/07/17 00:55:24;;;;;;;11.15;4.15;;;;;;;10.93;82.50;102674.16;6125808;23;20030;-71
2022/07/17 00:57:51;;;;;;;10.25;4.30;;;;;;;10.97;82.23;102696.41;6126065;23;20002;-80
2022/07/17 01:00:18;;;;;;;7.70;3.90;;;;;;;11.03;82.74;102722.06;6125844;23;20014;-75
2022/07/17 01:02:48;;;;;;;13.13;4.57;;;;;;;11.05;83.05;102715.09;6126051;23;20014;-79
2022/07/17 01:05:14;;;;;;;8.00;4.30;;;;;;;10.99;83.07;102711.84;6126102;23;20077;-71
2022/07/17 01:07:39;;;;;;;7.93;4.55;;;;;;;10.94;82.93;102704.28;6125754;23;20040;-73
2022/07/17 01:10:05;;;;;;;8.88;3.63;;;;;;;10.95;82.88;102707.69;6125860;23;20006;-70
2022/07/17 01:12:32;;;;;;;10.98;4.95;;;;;;;10.86;83.62;102701.09;6125990;23;20014;-78
2022/07/17 01:14:59;;;;;;;19.40;4.90;;;;;;;10.82;83.37;102695.19;6125697;23;20006;-78
2022/07/17 01:17:25;;;;;;;11.20;4.70;;;;;;;10.63;83.71;102676.06;6125471;23;20072;-72
2022/07/17 01:19:50;;;;;;;8.35;4.05;;;;;;;10.72;83.41;102687.81;6125694;23;20416;-71
2022/07/17 01:22:16;;;;;;;10.90;4.65;;;;;;;10.61;83.69;102678.66;6125921;23;20425;-70
2022/07/17 01:24:41;;;;;;;12.20;4.57;;;;;;;10.69;83.63;102693.91;6125907;23;20002;-71
2022/07/17 01:27:07;;;;;;;10.13;4.72;;;;;;;10.54;83.86;102684.94;6099102;23;20440;-71
2022/07/17 01:29:36;;;;;;;12.60;4.63;;;;;;;10.65;84.36;102699.25;6125610;23;19998;-71
2022/07/17 01:32:01;;;;;;;8.68;4.35;;;;;;;10.63;84.03;102700.16;6125479;23;20009;-71
2022/07/17 01:34:26;;;;;;;14.45;5.10;;;;;;;10.58;84.40;102696.84;6125949;23;20126;-72
2022/07/17 01:36:52;;;;;;;11.18;4.47;;;;;;;10.57;84.65;102690.00;6125276;23;20313;-71
2022/07/17 01:39:17;;;;;;;10.98;4.88;;;;;;;10.52;84.42;102686.75;6125860;23;20053;-72
2022/07/17 01:41:42;;;;;;;10.23;5.05;;;;;;;10.49;84.77;102685.97;6125997;23;20014;-81
2022/07/17 01:44:08;;;;;;;10.02;4.82;;;;;;;10.47;84.98;102686.03;6125331;23;20006;-73
2022/07/17 01:46:34;;;;;;;10.38;4.57;;;;;;;10.34;85.11;102671.84;6125603;23;20041;-71
2022/07/17 01:49:00;;;;;;;10.32;5.07;;;;;;;10.42;85.06;102694.81;6098973;23;20064;-77
2022/07/17 01:51:27;;;;;;;12.38;5.25;;;;;;;10.28;85.04;102683.19;6125225;23;20085;-81
2022/07/17 01:53:52;;;;;;;14.55;5.50;;;;;;;10.36;84.79;102700.19;6125634;23;20006;-72
2022/07/17 01:56:17;;;;;;;9.30;4.45;;;;;;;10.32;84.60;102704.59;6125622;23;20025;-81
2022/07/17 01:58:43;;;;;;;9.88;5.43;;;;;;;10.33;84.83;102709.75;6125437;23;20452;-80
2022/07/17 02:01:08;;;;;;;10.00;4.70;;;;;;;10.32;85.07;102709.75;6125585;23;20034;-72
2022/07/17 02:03:33;;;;;;;10.73;4.90;;;;;;;10.28;84.96;102703.03;6125259;23;20025;-71
2022/07/17 02:05:59;;;;;;;9.75;4.57;;;;;;;10.24;85.29;102704.03;6125469;23;20006;-73
2022/07/17 02:08:24;;;;;;;11.48;5.28;;;;;;;10.09;85.46;102688.97;6125436;23;20013;-70
2022/07/17 02:10:49;;;;;;;10.20;4.68;;;;;;;10.16;85.41;102704.22;6125527;23;20009;-81
2022/07/17 02:13:15;;;;;;;8.82;4.60;;;;;;;10.15;85.44;102697.38;6125890;23;20009;-75
2022/07/17 02:15:40;;;;;;;11.77;5.43;;;;;;;10.11;85.46;102694.91;6125302;23;20013;-80
2022/07/17 02:18:05;;;;;;;11.13;5.10;;;;;;;10.11;85.83;102703.50;6098441;23;20010;-71
2022/07/17 02:20:31;;;;;;;14.27;5.05;;;;;;;10.06;85.90;102702.81;6125109;23;20036;-72
2022/07/17 02:22:56;;;;;;;10.93;5.00;;;;;;;10.12;85.64;102705.19;6099002;23;20092;-72
2022/07/17 02:25:22;;;;;;;9.52;4.70;;;;;;;10.05;85.66;102696.81;6125576;23;20381;-78
2022/07/17 02:27:47;;;;;;;16.17;5.15;;;;;;;10.03;85.88;102702.91;6125653;23;20436;-81
2022/07/17 02:30:14;;;;;;;11.55;5.00;;;;;;;10.02;86.11;102702.03;6125233;23;20335;-79
2022/07/17 02:32:40;;;;;;;7.35;4.28;;;;;;;9.97;85.66;102700.53;6124873;23;20006;-80
2022/07/17 02:35:07;;;;;;;11.23;4.93;;;;;;;9.93;86.00;102701.47;6125427;23;20366;-81
2022/07/17 02:37:32;;;;;;;9.55;4.90;;;;;;;9.99;85.83;102711.63;6099442;23;20010;-81
2022/07/17 02:39:58;;;;;;;10.40;4.90;;;;;;;9.99;85.94;102699.56;6099636;23;20002;-81
2022/07/17 02:42:25;;;;;;;9.80;4.72;;;;;;;9.96;86.28;102694.50;6125303;23;20002;-81
2022/07/17 02:44:52;;;;;;;12.60;5.13;;;;;;;9.97;86.60;102685.88;6125344;23;20013;-81
2022/07/17 02:47:28;;;;;;;13.45;5.57;;;;;;;9.89;86.79;102680.09;6125681;23;20010;-81
2022/07/17 02:49:53;;;;;;;12.95;5.28;;;;;;;9.89;86.82;102692.16;6114933;23;20089;-83
2022/07/17 02:52:19;;;;;;;11.77;4.85;;;;;;;9.87;86.90;102688.78;6125440;23;20073;-76
2022/07/17 02:54:45;;;;;;;10.77;4.80;;;;;;;9.81;86.52;102682.06;6125829;23;20013;-82
2022/07/17 02:57:12;;;;;;;10.95;5.45;;;;;;;9.82;86.55;102688.06;6125664;23;20412;-82
2022/07/17 02:59:37;;;;;;;9.23;4.75;;;;;;;9.78;86.46;102693.31;6125259;23;20081;-82
2022/07/17 03:02:04;;;;;;;11.48;5.03;;;;;;;9.71;86.78;102690.97;6125418;23;20048;-79
2022/07/17 03:04:29;;;;;;;9.43;5.20;;;;;;;9.79;86.82;102712.22;6125265;23;20010;-82
2022/07/17 03:06:54;;;;;;;10.25;5.03;;;;;;;9.77;86.94;102703.69;6127384;23;20041;-80
2022/07/17 03:09:20;;;;;;;10.30;5.20;;;;;;;9.76;87.52;102712.34;6127160;23;20427;-80
2022/07/17 03:11:45;;;;;;;10.38;4.82;;;;;;;9.72;87.21;102715.88;6127360;23;20006;-79
2022/07/17 03:14:10;;;;;;;10.15;5.03;;;;;;;9.69;87.30;102703.06;6127217;23;20010;-81
2022/07/17 03:16:36;;;;;;;9.82;4.53;;;;;;;9.60;87.42;102703.34;6127042;23;20471;-80
2022/07/17 03:19:01;;;;;;;11.80;5.10;;;;;;;9.65;87.82;102722.13;6126841;23;20064;-81
2022/07/17 03:21:27;;;;;;;13.65;5.80;;;;;;;9.63;87.67;102713.56;6126483;23;20021;-78
2022/07/17 03:23:52;;;;;;;10.10;5.13;;;;;;;9.56;87.31;102706.91;6127196;23;20010;-79
2022/07/17 03:26:17;;;;;;;9.15;5.22;;;;;;;9.56;87.50;102718.06;6127052;23;20002;-81
2022/07/17 03:28:42;;;;;;;10.00;5.65;;;;;;;9.55;87.46;102723.28;6127141;23;20002;-78
2022/07/17 03:31:08;;;;;;;12.02;5.45;;;;;;;9.55;87.74;102715.53;6126961;23;20002;-82
2022/07/17 03:33:33;;;;;;;14.43;5.70;;;;;;;9.45;87.81;102710.63;6126852;23;20417;-81
2022/07/17 03:35:59;;;;;;;10.93;5.50;;;;;;;9.51;87.92;102708.75;6126824;23;20009;-80
2022/07/17 03:38:24;;;;;;;7.47;5.00;;;;;;;9.47;87.92;102708.84;6126936;23;20002;-82
2022/07/17 03:40:49;;;;;;;10.30;5.50;;;;;;;9.45;87.95;102708.06;6126735;23;20463;-76
2022/07/17 03:43:15;;;;;;;10.90;5.10;;;;;;;9.46;87.84;102711.47;6126852;23;20037;-80
2022/07/17 03:45:41;;;;;;;13.02;5.40;;;;;;;9.47;87.75;102710.59;6126831;23;20036;-79
2022/07/17 03:48:06;;;;;;;9.20;5.25;;;;;;;9.43;87.55;102707.22;6126756;23;20009;-81
2022/07/17 03:50:32;;;;;;;10.65;5.30;;;;;;;9.42;87.87;102702.97;6126649;23;20012;-80
2022/07/17 03:52:57;;;;;;;12.68;5.50;;;;;;;9.46;87.95;102707.16;6100218;23;20006;-81
2022/07/17 03:55:22;;;;;;;11.85;5.28;;;;;;;9.49;88.19;102707.06;6127083;23;20323;-82
2022/07/17 03:57:47;;;;;;;14.43;5.45;;;;;;;9.43;87.77;102703.81;6126747;23;20002;-73
2022/07/17 04:00:14;;;;;;;10.95;5.40;;;;;;;9.53;88.20;102714.72;6126882;23;20085;-80
2022/07/17 04:02:40;;;;;;;10.88;5.03;;;;;;;9.56;87.83;102722.38;6100043;23;20034;-73
2022/07/17 04:05:09;;;;;;;9.07;5.05;;;;;;;9.55;88.00;102718.13;6126708;23;20408;-75
2022/07/17 04:07:37;;;;;;;12.68;5.00;;;;;;;9.64;87.83;102735.91;6126771;23;20042;-82
2022/07/17 04:10:03;;;;;;;13.65;5.53;;;;;;;9.64;87.62;102730.75;6126524;23;20025;-77
2022/07/17 04:12:29;;;;;;;11.13;5.78;;;;;;;9.60;88.17;102717.06;6126489;23;20006;-78
2022/07/17 04:14:55;;;;;;;10.93;6.00;;;;;;;9.69;87.79;102727.13;6126569;23;20085;-77
2022/07/17 04:17:20;;;;;;;12.25;5.10;;;;;;;9.72;87.62;102723.59;6125776;23;20503;-76
2022/07/17 04:19:46;;;;;;;9.40;5.47;;;;;;;9.75;87.80;102731.28;6114177;23;20012;-79
2022/07/17 04:22:11;;;;;;;14.18;6.10;;;;;;;9.80;88.37;102723.41;6126490;23;20128;-77
2022/07/17 04:24:37;;;;;;;9.77;5.25;;;;;;;9.84;87.58;102738.75;6126153;23;20017;-74
2022/07/17 04:27:02;;;;;;;10.65;5.55;;;;;;;9.82;87.27;102734.50;6126406;23;20006;-77
2022/07/17 04:29:28;;;;;;;11.00;4.95;;;;;;;9.95;87.06;102730.69;6126675;23;20088;-77
2022/07/17 04:31:53;;;;;;;11.77;5.13;;;;;;;10.02;86.97;102720.13;6126378;23;20009;-76
2022/07/17 04:34:19;;;;;;;13.60;5.60;;;;;;;10.12;87.14;102707.78;6126014;23;20009;-79
2022/07/17 04:36:44;;;;;;;10.43;5.53;;;;;;;10.19;86.87;102703.28;6126296;23;20006;-81
2022/07/17 04:39:09;;;;;;;13.50;5.68;;;;;;;10.42;86.97;102729.25;6126204;23;20010;-81
2022/07/17 04:41:35;;;;;;;12.25;5.53;;;;;;;10.47;86.17;102719.63;6126494;23;20376;-82
2022/07/17 04:44:00;;;;;;;14.18;5.85;;;;;;;10.67;86.27;102733.63;6126213;23;20006;-80
2022/07/17 04:46:25;;;;;;;11.77;5.40;;;;;;;10.78;86.26;102732.38;6126174;23;20085;-78
2022/07/17 04:48:51;;;;;;;11.55;5.55;;;;;;;10.79;85.83;102730.63;6126108;23;20037;-76
2022/07/17 04:51:16;;;;;;;13.63;5.93;;;;;;;10.80;86.02;102717.66;6099638;23;20009;-77
2022/07/17 04:53:41;;;;;;;9.80;5.78;;;;;;;11.01;86.37;102734.19;6125890;23;20057;-81
2022/07/17 04:56:07;;;;;;;12.35;5.80;;;;;;;11.09;86.14;102734.75;6126155;23;20012;-81
2022/07/17 04:58:32;;;;;;;13.07;6.20;;;;;;;11.15;86.00;102737.13;6126454;23;20073;-78
2022/07/17 05:00:57;;;;;;;15.77;5.95;;;;;;;11.28;85.56;102742.72;6125983;23;20006;-80
2022/07/17 05:03:23;;;;;;;18.25;6.40;;;;;;;11.15;85.50;102689.75;6126094;23;20002;-82
2022/07/17 05:05:48;;;;;;;12.05;5.72;;;;;;;11.29;85.55;102710.78;6125646;23;20013;-79
2022/07/17 05:08:13;;;;;;;13.05;5.72;;;;;;;11.47;85.81;102733.38;6126350;23;20006;-81
2022/07/17 05:10:38;;;;;;;9.93;4.97;;;;;;;11.85;87.83;102720.81;6126282;23;20024;-83
2022/07/17 05:13:04;;;;;;;9.93;4.97;;;;;;;12.45;86.42;102713.28;6125970;23;20006;-76
2022/07/17 05:15:29;;;;;;;12.13;5.10;;;;;;;13.26;82.20;102721.06;6126131;23;20002;-74
2022/07/17 05:17:55;;;;;;;8.38;4.32;;;;;;;13.95;80.44;102715.34;6126260;23;20073;-81
2022/07/17 05:20:20;;;;;;;12.13;4.85;;;;;;;14.50;78.03;102736.94;6125353;23;20428;-86
2022/07/17 05:22:45;;;;;;;13.43;4.95;;;;;;;14.99;74.42;102734.50;6125855;23;20006;-87
2022/07/17 05:25:11;;;;;;;11.55;5.60;;;;;;;15.41;71.23;102727.97;6126148;23;20024;-88
2022/07/17 05:27:36;;;;;;;11.30;4.70;;;;;;;16.13;70.68;102724.94;6125980;23;20387;-77
2022/07/17 05:30:02;;;;;;;13.88;6.68;;;;;;;16.50;66.21;102730.63;6125870;23;20332;-87
2022/07/17 05:32:27;;;;;;;11.45;4.72;;;;;;;17.08;64.34;102733.28;6125659;23;20041;-83
2022/07/17 05:34:52;;;;;;;11.38;5.15;;;;;;;17.69;62.34;102729.56;6125788;23;20054;-86
2022/07/17 05:37:18;;;;;;;13.68;5.82;;;;;;;18.16;60.26;102727.47;6125675;23;20061;-81
2022/07/17 05:39:43;;;;;;;13.77;5.18;;;;;;;18.71;58.15;102714.22;6098566;23;20009;-86
2022/07/17 05:42:08;;;;;;;17.77;5.40;;;;;;;19.68;55.17;102711.84;6125625;23;20462;-83
2022/07/17 05:44:34;;;;;;;11.95;5.93;;;;;;;20.43;53.66;102721.25;6125850;23;20016;-92
2022/07/17 05:46:59;;;;;;;11.43;4.70;;;;;;;20.86;51.65;102693.44;6099398;23;20006;-88
2022/07/17 05:49:24;;;;;;;14.18;4.45;;;;;;;21.77;49.07;102723.94;6125830;23;20071;-80
2022/07/17 05:51:50;;;;;;;16.60;4.68;;;;;;;22.35;47.84;102724.47;6125868;23;20041;-86
2022/07/17 05:54:15;;;;;;;11.68;4.78;;;;;;;23.21;45.13;102725.97;6125370;23;20033;-75
2022/07/17 05:56:40;;;;;;;13.88;5.03;;;;;;;23.45;44.35;102700.06;6124153;23;20006;-82
2022/07/17 05:59:06;;;;;;;14.05;4.80;;;;;;;23.96;42.83;102714.88;6126435;23;20034;-79
2022/07/17 06:01:31;;;;;;;12.75;4.90;;;;;;;24.38;41.82;102716.41;6126522;23;20013;-78
2022/07/17 06:03:56;;;;;;;10.98;5.13;;;;;;;24.13;42.02;102699.34;6125766;23;20084;-80
2022/07/17 06:06:22;;;;;;;11.02;5.22;;;;;;;25.03;40.26;102714.75;6125388;23;20006;-79
2022/07/17 06:08:47;;;;;;;13.27;4.82;;;;;;;25.27;39.51;102707.13;6099056;23;20033;-75
2022/07/17 06:11:12;;;;;;;13.82;5.43;;;;;;;25.87;37.52;102699.50;6125494;23;20417;-78
2022/07/17 06:13:38;;;;;;;14.02;5.28;;;;;;;25.84;38.14;102702.44;6125604;23;20006;-79
2022/07/17 06:16:03;;;;;;;14.65;5.20;;;;;;;26.22;37.53;102693.34;6125293;23;20006;-74
2022/07/17 06:18:29;;;;;;;14.70;5.85;;;;;;;26.74;35.73;102666.84;6125445;23;20065;-86
2022/07/17 06:20:54;;;;;;;13.70;5.20;;;;;;;26.66;36.10;102684.56;6125137;23;20014;-77
2022/07/17 06:23:20;;;;;;;13.55;5.00;;;;;;;26.53;36.31;102701.69;6099559;23;20475;-80
2022/07/17 06:25:45;;;;;;;11.55;4.78;;;;;;;27.15;35.71;102702.38;6125293;23;20033;-75
2022/07/17 06:28:11;;;;;;;9.85;4.50;;;;;;;27.53;34.44;102710.78;6125251;23;20002;-78
2022/07/17 06:30:37;;;;;;;12.90;4.90;;;;;;;27.54;34.40;102719.56;6125430;23;20010;-75
2022/07/17 06:33:02;;;;;;;16.25;5.28;;;;;;;27.26;34.83;102700.41;6125518;23;20013;-76
2022/07/17 06:35:30;;;;;;;14.88;4.85;;;;;;;27.64;33.90;102709.63;6125333;23;20005;-78
2022/07/17 06:37:55;;;;;;;12.80;4.90;;;;;;;27.10;35.13;102666.72;6125038;23;20077;-84
2022/07/17 06:40:21;;;;;;;12.80;5.07;;;;;;;28.11;33.05;102704.53;6126593;23;20037;-81
2022/07/17 06:42:46;;;;;;;12.38;4.50;;;;;;;28.41;33.50;102711.00;6128262;23;20028;-80
2022/07/17 06:45:11;;;;;;;14.82;4.68;;;;;;;28.47;32.78;102728.13;6127716;23;20006;-82
2022/07/17 06:47:37;;;;;;;13.25;4.82;;;;;;;28.12;32.39;102724.81;6101592;23;20001;-78
2022/07/17 06:50:03;;;;;;;11.82;4.90;;;;;;;28.15;33.12;102720.97;6127307;23;20002;-86
2022/07/17 06:52:28;;;;;;;9.02;4.72;;;;;;;28.41;33.23;102734.09;6100252;23;20502;-82
2022/07/17 06:54:54;;;;;;;8.63;4.55;;;;;;;28.86;31.78;102737.00;6100619;23;20432;-79
2022/07/17 06:57:19;;;;;;;14.07;5.00;;;;;;;28.60;32.04;102743.53;6127462;23;20471;-81
2022/07/17 06:59:44;;;;;;;9.52;4.90;;;;;;;28.96;31.80;102738.66;6126809;23;20006;-83
2022/07/17 07:02:10;;;;;;;10.80;5.03;;;;;;;28.76;32.03;102731.03;6127390;23;20010;-82
2022/07/17 07:04:35;;;;;;;12.15;4.68;;;;;;;28.48;32.03;102727.09;6127194;23;20333;-79
2022/07/17 07:07:00;;;;;;;11.48;4.65;;;;;;;29.02;31.54;102748.63;6099672;23;20081;-81
2022/07/17 07:09:26;;;;;;;14.80;5.47;;;;;;;28.99;31.25;102741.78;6127069;23;20013;-80
2022/07/17 07:11:51;;;;;;;12.95;4.82;;;;;;;28.99;31.50;102765.72;6127122;23;20013;-85
2022/07/17 07:14:17;;;;;;;13.55;5.22;;;;;;;28.55;32.28;102752.84;6127008;23;20084;-79
2022/07/17 07:16:42;;;;;;;14.15;4.75;;;;;;;28.98;32.21;102764.06;6101525;23;20029;-82
2022/07/17 07:19:07;;;;;;;15.15;5.05;;;;;;;29.65;30.85;102758.31;6127065;23;20077;-89
2022/07/17 07:21:33;;;;;;;9.60;4.70;;;;;;;30.15;29.38;102754.31;6126758;23;20089;-84
2022/07/17 07:23:58;;;;;;;13.85;4.88;;;;;;;29.28;30.96;102761.63;6127155;23;20014;-86
2022/07/17 07:26:24;;;;;;;12.20;4.57;;;;;;;29.10;31.50;102756.53;6126745;23;20333;-83
2022/07/17 07:28:49;;;;;;;12.30;4.30;;;;;;;29.62;31.25;102753.34;6127079;23;20430;-88
2022/07/17 07:31:16;;;;;;;15.57;4.68;;;;;;;29.97;30.69;102747.41;6127077;23;20412;-77
2022/07/17 07:33:42;;;;;;;11.15;4.65;;;;;;;30.15;29.19;102762.31;6127336;23;20005;-86
2022/07/17 07:36:07;;;;;;;16.35;4.78;;;;;;;29.98;29.61;102740.25;6127161;23;20439;-82
2022/07/17 07:38:33;;;;;;;9.32;4.03;;;;;;;30.34;28.86;102758.31;6127151;23;20434;-81
2022/07/17 07:40:58;;;;;;;9.02;3.65;;;;;;;29.87;28.41;102740.66;6126468;23;20006;-81
2022/07/17 07:43:23;;;;;;;13.98;3.67;;;;;;;27.59;32.30;102749.91;6127068;23;20006;-82
2022/07/17 07:45:49;;;;;;;15.18;4.70;;;;;;;25.66;36.10;102746.56;6126856;23;19998;-82
2022/07/17 07:48:15;;;;;;;12.45;4.22;;;;;;;24.41;39.08;102761.06;6127165;23;20002;-80
2022/07/17 07:50:40;;;;;;;15.68;4.38;;;;;;;23.37;42.03;102754.44;6126864;23;20010;-78
2022/07/17 07:53:05;;;;;;;11.27;4.30;;;;;;;22.68;42.93;102764.75;6126236;23;20399;-80
2022/07/17 07:55:31;;;;;;;12.05;4.60;;;;;;;21.87;44.54;102769.59;6099971;23;20013;-78
2022/07/17 07:58:04;;;;;;;11.40;3.97;;;;;;;21.30;46.00;102775.88;6126803;23;20424;-83
2022/07/17 08:00:30;;;;;;;15.73;4.40;;;;;;;20.89;45.47;102785.09;6126676;23;20074;-80
2022/07/17 08:02:55;;;;;;;9.82;4.55;;;;;;;20.43;48.00;102748.31;6126244;23;20014;-81
2022/07/17 08:05:20;;;;;;;11.02;4.38;;;;;;;20.45;48.64;102771.84;6126524;23;20013;-80
2022/07/17 08:07:46;;;;;;;11.75;4.43;;;;;;;20.35;49.79;102758.53;6100566;23;20006;-81
2022/07/17 08:10:11;;;;;;;10.65;3.88;;;;;;;20.42;50.45;102764.16;6126614;23;20013;-78
2022/07/17 08:12:37;;;;;;;14.68;5.03;;;;;;;20.18;49.35;102736.16;6099881;23;20440;-81
2022/07/17 08:15:04;;;;;;;9.73;4.72;;;;;;;20.25;50.15;102774.09;6126297;23;20012;-76
2022/07/17 08:17:29;;;;;;;14.55;5.00;;;;;;;20.17;50.86;102781.72;6126235;23;20006;-81
2022/07/17 08:19:55;;;;;;;12.48;4.43;;;;;;;20.09;50.04;102757.81;6126106;23;20428;-77
2022/07/17 08:22:20;;;;;;;12.50;4.82;;;;;;;20.14;49.65;102771.44;6126916;23;20013;-78
2022/07/17 08:24:46;;;;;;;13.68;5.22;;;;;;;20.10;50.72;102774.41;6126629;23;19998;-81
2022/07/17 08:27:11;;;;;;;14.63;4.60;;;;;;;20.31;52.35;102778.91;6126039;23;20409;-82
2022/07/17 08:29:36;;;;;;;14.40;5.10;;;;;;;20.36;50.27;102780.38;6126074;23;20082;-76
2022/07/17 08:32:02;;;;;;;13.98;4.97;;;;;;;20.34;50.52;102768.19;6126697;23;20427;-76
2022/07/17 08:34:27;;;;;;;11.15;4.85;;;;;;;20.14;51.62;102755.69;6126604;23;20006;-82
2022/07/17 08:36:52;;;;;;;16.00;4.72;;;;;;;20.36;51.74;102772.50;6099505;23;20089;-78
2022/07/17 08:39:17;;;;;;;13.68;4.70;;;;;;;20.19;50.35;102777.19;6126334;23;20009;-83
2022/07/17 08:41:43;;;;;;;9.65;3.50;;;;;;;20.25;52.54;102750.50;6126225;23;20363;-76
2022/07/17 08:44:09;;;;;;;15.65;4.75;;;;;;;19.83;51.68;102701.19;6126517;23;20463;-82
2022/07/17 08:46:39;;;;;;;13.57;4.78;;;;;;;20.23;52.05;102772.53;6126440;23;20320;-80
2022/07/17 08:49:06;;;;;;;11.25;4.30;;;;;;;20.07;50.53;102751.88;6126376;23;20013;-81
2022/07/17 08:51:32;;;;;;;10.68;3.72;;;;;;;20.19;50.68;102753.59;6125865;23;20002;-80
2022/07/17 08:53:58;;;;;;;10.98;3.65;;;;;;;20.28;51.23;102747.66;6125938;23;20029;-80
2022/07/17 08:56:24;;;;;;;12.27;4.30;;;;;;;20.29;50.95;102766.88;6126084;23;20056;-81
2022/07/17 08:58:49;;;;;;;11.13;4.50;;;;;;;20.14;50.34;102767.97;6126077;23;20001;-79
2022/07/17 09:01:16;;;;;;;7.90;3.47;;;;;;;20.14;49.76;102745.19;6125794;23;20443;-79
2022/07/17 09:03:53;;;;;;;13.50;3.53;;;;;;;20.24;51.34;102764.56;6125928;23;20420;-81
2022/07/17 09:06:20;;;;;;;12.60;3.42;;;;;;;20.40;49.58;102763.44;6098990;23;20420;-82
2022/07/17 09:08:45;;;;;;;10.35;4.25;;;;;;;20.28;48.37;102744.19;6113923;23;20017;-82
2022/07/17 09:11:10;;;;;;;12.10;3.78;;;;;;;20.44;50.24;102764.91;6125929;23;20324;-83
2022/07/17 09:13:36;;;;;;;13.07;3.85;;;;;;;20.47;48.62;102767.31;6125881;23;20006;-81
2022/07/17 09:16:10;;;;;;;14.05;3.83;;;;;;;20.44;49.17;102741.28;6126228;23;20009;-84
2022/07/17 09:18:46;;;;;;;10.35;3.47;;;;;;;20.24;50.12;102716.50;6125650;23;20002;-83
2022/07/17 09:21:20;;;;;;;10.88;4.00;;;;;;;20.40;48.45;102768.69;6125477;23;20025;-83
2022/07/17 09:23:45;;;;;;;10.77;3.88;;;;;;;20.39;48.64;102767.03;6098725;23;20014;-81
2022/07/17 09:26:11;;;;;;;12.10;2.80;;;;;;;20.46;50.20;102770.91;6125658;23;20107;-80
2022/07/17 09:28:46;;;;;;;10.13;3.25;;;;;;;20.32;48.11;102724.66;6125896;23;20017;-81
2022/07/17 09:31:14;;;;;;;9.05;3.10;;;;;;;20.59;46.61;102751.50;6125768;23;20009;-82
2022/07/17 09:33:39;;;;;;;7.35;3.40;;;;;;;20.61;48.26;102738.25;6125898;23;20009;-80
2022/07/17 09:36:12;;;;;;;9.43;3.75;;;;;;;20.49;46.07;102749.69;6126170;23;20002;-81
2022/07/17 09:38:42;;;;;;;7.90;3.38;;;;;;;20.55;46.46;102743.94;6125570;23;20036;-82
2022/07/17 09:41:15;;;;;;;10.77;3.58;;;;;;;20.60;47.86;102745.28;6125498;23;20016;-83
2022/07/17 09:43:52;;;;;;;16.80;3.85;;;;;;;20.71;45.98;102741.00;6125816;23;20010;-80
2022/07/17 09:46:26;;;;;;;8.75;2.80;;;;;;;20.77;46.35;102749.28;6125795;23;20010;-83
2022/07/17 09:48:53;;;;;;;14.90;3.63;;;;;;;20.78;47.39;102737.81;6125380;23;20013;-79
2022/07/17 09:51:22;;;;;;;10.77;3.42;;;;;;;20.99;46.59;102755.50;6125367;23;20066;-86
2022/07/17 09:53:49;;;;;;;9.90;3.90;;;;;;;20.74;45.97;102717.97;6125665;23;20002;-82
2022/07/17 09:56:17;;;;;;;10.73;3.25;;;;;;;20.72;47.06;102735.66;6125480;23;20084;-80
2022/07/17 09:58:49;;;;;;;10.27;3.65;;;;;;;20.80;47.00;102754.28;6125684;23;20012;-79
2022/07/17 10:01:16;;;;;;;13.15;3.88;;;;;;;20.85;45.83;102757.41;6125566;23;20060;-82
2022/07/17 10:03:43;;;;;;;8.68;3.45;;;;;;;20.88;46.72;102753.72;6125694;23;20005;-75
2022/07/17 10:06:10;;;;;;;10.15;3.78;;;;;;;20.86;46.46;102748.56;6125393;23;19998;-81
2022/07/17 10:08:37;;;;;;;10.55;3.25;;;;;;;20.96;47.79;102761.00;6125300;23;20002;-79
2022/07/17 10:11:03;;;;;;;9.40;3.58;;;;;;;21.05;47.60;102760.31;6125619;23;19998;-80
2022/07/17 10:13:30;;;;;;;11.85;3.92;;;;;;;21.08;45.06;102757.44;6125950;23;20373;-79
2022/07/17 10:15:56;;;;;;;8.52;3.33;;;;;;;21.06;46.35;102743.59;6127847;23;20006;-79
2022/07/17 10:18:21;;;;;;;12.55;3.83;;;;;;;21.28;46.38;102756.75;6127751;23;19998;-79
2022/07/17 10:20:46;;;;;;;12.73;3.70;;;;;;;21.29;46.04;102754.97;6127264;23;20026;-79
2022/07/17 10:23:14;;;;;;;12.70;3.28;;;;;;;21.03;44.76;102718.38;6127806;23;20030;-79
2022/07/17 10:25:39;;;;;;;10.73;3.20;;;;;;;21.01;42.99;102728.16;6126950;23;20006;-79
2022/07/17 10:28:04;;;;;;;10.27;3.30;;;;;;;21.12;44.83;102761.50;6127378;23;20040;-79
2022/07/17 10:30:31;;;;;;;9.73;3.38;;;;;;;21.25;45.26;102759.59;6100357;23;20089;-79
2022/07/17 10:32:59;;;;;;;7.95;3.15;;;;;;;21.21;44.14;102758.16;6127471;23;20069;-79
2022/07/17 10:35:26;;;;;;;13.90;4.25;;;;;;;21.32;46.56;102759.97;6127042;23;20014;-78
2022/07/17 10:37:53;;;;;;;11.20;3.70;;;;;;;21.37;43.98;102750.78;6101161;23;20498;-80
2022/07/17 10:40:19;;;;;;;9.95;3.63;;;;;;;21.68;47.01;102754.44;6127060;23;20006;-79
2022/07/17 10:42:49;;;;;;;10.80;3.10;;;;;;;21.87;44.29;102745.09;6127414;23;20343;-79
2022/07/17 10:45:23;;;;;;;10.13;2.88;;;;;;;21.91;43.40;102746.50;6127215;23;20483;-77
2022/07/17 10:47:52;;;;;;;11.77;3.30;;;;;;;21.95;42.13;102746.16;6127402;23;20378;-78
2022/07/17 10:50:20;;;;;;;8.15;3.10;;;;;;;21.90;41.89;102744.84;6127173;23;20002;-77
2022/07/17 10:53:00;;;;;;;10.65;3.22;;;;;;;21.96;42.73;102754.88;6127106;23;20006;-77
2022/07/17 10:55:25;;;;;;;9.70;2.50;;;;;;;21.78;40.71;102733.50;6100395;23;20824;-79
2022/07/17 10:57:50;;;;;;;9.50;2.97;;;;;;;21.72;40.74;102760.28;6127278;23;20006;-78
2022/07/17 11:00:16;;;;;;;9.65;3.15;;;;;;;21.65;42.33;102744.19;6127382;23;20442;-77
2022/07/17 11:02:43;;;;;;;9.23;2.53;;;;;;;21.83;40.63;102756.78;6127033;23;20406;-79
2022/07/17 11:05:11;;;;;;;8.93;2.50;;;;;;;21.95;44.77;102745.31;6126804;23;20010;-79
2022/07/17 11:07:50;;;;;;;10.38;3.00;;;;;;;22.02;42.16;102741.19;6126951;23;20013;-79
2022/07/17 11:10:15;;;;;;;9.75;2.70;;;;;;;22.18;41.71;102746.09;6126609;23;20006;-78
2022/07/17 11:12:41;;;;;;;9.77;3.13;;;;;;;22.25;41.87;102748.09;6127138;23;20334;-78
2022/07/17 11:15:06;;;;;;;10.27;3.17;;;;;;;22.15;40.05;102730.56;6126852;23;20091;-78